Meteo Giornale » Osservazioni meteo Italia » Resia Pass

ore: 00:55 - Osservazioni Meteo Resia Pass
Lat. 46° 50' N Lon. 10° 30' E Alt. 1800 metri s.l.m.

molto_nuvoloso Europe/Rome

10 °C

Molto Nuvoloso

Temp. 24 Ore

8 °C

14 °C

Nord

9.3 Km/h

Dew point 5 °C

Umidità 71 %

Visibilità  10 Km

Il sole sorge alle ore 05:49

Il sole tramonta alle ore 20:59

Data e Ora Cielo e Fenomeni T °C DP °C Um. % Pres. hPa Vis. km Vento km/h
Oggi h: 00:55 molto_nuvoloso Molto Nuvoloso 10 5 71 1010 10 N 9.3
Ieri h: 23:55 molto_nuvoloso Molto Nuvoloso 10 5 71 1010 10 N/NE 7.4
Ieri h: 22:55 molto_nuvoloso Molto Nuvoloso 10 4 66 1010 10 N 5.5
Ieri h: 21:55 sereno Sereno 10 3 61 1010 10 N 3.7
Ieri h: 20:55 sereno Sereno 11 4 61 1010 10 N 3.7
Ieri h: 19:55 nuvoloso Nuvoloso 11 2 53 1010 10 N 7.4
Ieri h: 18:55 molto_nuvoloso Molto Nuvoloso 12 1 46 1010 10 N 11.1
Ieri h: 17:55 molto_nuvoloso Molto Nuvoloso 12 1 46 1010 10 N/NE 11.1
Ieri h: 16:55 molto_nuvoloso Molto Nuvoloso 13 2 47 1010 10 N 11.1
Ieri h: 15:55 molto_nuvoloso Molto Nuvoloso 14 2 44 1010 10 N 14.8
Ieri h: 14:55 molto_nuvoloso Molto Nuvoloso 14 2 44 1010 10 N 13
Ieri h: 13:55 molto_nuvoloso Molto Nuvoloso 14 0 38 1010 10 N/NE 9.3
Ieri h: 12:55 molto_nuvoloso Molto Nuvoloso 13 2 47 1010 10 N 14.8
Ieri h: 11:55 molto_nuvoloso Molto Nuvoloso 8 -1 52 1010 10 N 13
Ieri h: 10:55 sereno Sereno 11 4 61 1011 10 N 13
Ieri h: 09:55 sereno Sereno 10 3 61 1011 10 N/NE 13
Ieri h: 08:55 nuvoloso Nuvoloso 8 6 87 1010 10 N/NE 11.1
Ieri h: 07:55 nuvoloso Nuvoloso 8 5 81 1010 10 NE 7.4
Ieri h: 06:55 coperto_pioggia Pioggia Debole 8 6 87 1010 10 N/NE 13
Ieri h: 05:55 molto_nuvoloso Molto Nuvoloso 8 7 93 1010 10 N/NE 11.1
Ieri h: 04:55 coperto_pioggia Pioggia Debole 8 6 87 1010 10 N/NE 14.8
Ieri h: 02:55 nuvoloso Nuvoloso 9 6 81 1011 10 N/NE 9.3